createdAt,value
2023-05-14T00:25:52.911Z,8.69
2023-05-14T00:55:52.910Z,8.44
2023-05-14T01:25:52.916Z,8.88
2023-05-14T01:55:52.916Z,9
2023-05-14T02:25:52.929Z,9
2023-05-14T02:55:52.919Z,9.56
2023-05-14T03:25:52.922Z,9.69
2023-05-14T03:55:52.927Z,9.5
2023-05-14T04:25:52.948Z,9.69
2023-05-14T04:55:52.961Z,10.5
2023-05-14T05:25:52.960Z,10.81
2023-05-14T05:55:52.955Z,10.44
2023-05-14T06:25:52.955Z,11.31
2023-05-14T06:55:52.978Z,13.63
2023-05-14T07:25:52.968Z,15.19
2023-05-14T07:55:52.978Z,14.75
2023-05-14T08:25:52.985Z,15.5
2023-05-14T08:55:52.985Z,16.13
2023-05-14T09:25:52.988Z,16.94
2023-05-14T09:55:52.993Z,18.38
2023-05-14T10:25:52.992Z,17.63
2023-05-14T10:55:52.995Z,18
2023-05-14T11:25:53.026Z,17.13
2023-05-14T11:55:52.997Z,18.19
2023-05-14T12:25:53.038Z,19.5
2023-05-14T12:55:53.001Z,19.81
2023-05-14T13:25:53.010Z,21.19
2023-05-14T13:55:53.027Z,21.5
2023-05-14T14:25:53.021Z,20.31
2023-05-14T14:55:53.094Z,19.19
2023-05-14T15:25:53.079Z,19.63
2023-05-14T15:55:53.044Z,20.75
2023-05-14T16:25:53.038Z,20.25
2023-05-14T16:55:53.042Z,19.75
2023-05-14T17:25:53.043Z,23.5
2023-05-14T17:55:53.060Z,19.25
2023-05-14T18:25:53.062Z,17.31
2023-05-14T18:55:53.096Z,15.81
2023-05-14T19:25:53.073Z,14.88
2023-05-14T19:55:53.071Z,14.81
2023-05-14T20:25:53.074Z,14.38
2023-05-14T20:55:53.089Z,13.13
2023-05-14T21:25:53.115Z,12.69
2023-05-14T21:55:53.132Z,12.5
2023-05-14T22:25:53.120Z,12.69
2023-05-14T22:55:53.131Z,12.31
2023-05-14T23:25:53.132Z,11.75
2023-05-14T23:55:53.129Z,11.69
